sensor_id;sensor_type;location;lat;lon;timestamp;P1;durP1;ratioP1;P2;durP2;ratioP2
39738;SDS011;25422;48.286;8.484;2022-12-18T00:02:16;76.28;;;33.67;;
39738;SDS011;25422;48.286;8.484;2022-12-18T00:04:41;103.50;;;38.80;;
39738;SDS011;25422;48.286;8.484;2022-12-18T00:07:06;115.63;;;41.80;;
39738;SDS011;25422;48.286;8.484;2022-12-18T00:09:32;126.93;;;44.60;;
39738;SDS011;25422;48.286;8.484;2022-12-18T00:11:58;128.73;;;42.05;;
39738;SDS011;25422;48.286;8.484;2022-12-18T00:14:23;120.50;;;45.45;;
39738;SDS011;25422;48.286;8.484;2022-12-18T00:16:48;149.90;;;52.08;;
39738;SDS011;25422;48.286;8.484;2022-12-18T00:19:14;131.13;;;49.53;;
39738;SDS011;25422;48.286;8.484;2022-12-18T00:21:40;157.38;;;53.15;;
39738;SDS011;25422;48.286;8.484;2022-12-18T00:24:07;170.93;;;54.05;;
39738;SDS011;25422;48.286;8.484;2022-12-18T00:26:34;145.77;;;48.58;;
39738;SDS011;25422;48.286;8.484;2022-12-18T00:29:03;142.70;;;48.78;;
39738;SDS011;25422;48.286;8.484;2022-12-18T00:31:34;143.60;;;50.53;;
39738;SDS011;25422;48.286;8.484;2022-12-18T00:34:00;134.23;;;45.65;;
39738;SDS011;25422;48.286;8.484;2022-12-18T00:36:27;136.98;;;47.63;;
39738;SDS011;25422;48.286;8.484;2022-12-18T00:38:56;124.03;;;45.03;;
39738;SDS011;25422;48.286;8.484;2022-12-18T00:41:23;124.90;;;44.00;;
39738;SDS011;25422;48.286;8.484;2022-12-18T00:44:08;131.95;;;45.33;;
39738;SDS011;25422;48.286;8.484;2022-12-18T00:46:36;130.20;;;45.42;;
39738;SDS011;25422;48.286;8.484;2022-12-18T00:49:01;123.57;;;44.58;;
39738;SDS011;25422;48.286;8.484;2022-12-18T00:51:27;116.53;;;41.60;;
39738;SDS011;25422;48.286;8.484;2022-12-18T00:53:53;101.93;;;40.03;;
39738;SDS011;25422;48.286;8.484;2022-12-18T00:56:19;127.45;;;43.95;;
39738;SDS011;25422;48.286;8.484;2022-12-18T00:58:45;119.60;;;41.97;;
39738;SDS011;25422;48.286;8.484;2022-12-18T01:01:10;124.05;;;42.20;;
39738;SDS011;25422;48.286;8.484;2022-12-18T01:03:36;117.32;;;41.83;;
39738;SDS011;25422;48.286;8.484;2022-12-18T01:06:05;108.38;;;41.45;;
39738;SDS011;25422;48.286;8.484;2022-12-18T01:08:35;112.40;;;40.90;;
39738;SDS011;25422;48.286;8.484;2022-12-18T01:11:06;107.88;;;38.58;;
39738;SDS011;25422;48.286;8.484;2022-12-18T01:13:33;106.55;;;37.20;;
39738;SDS011;25422;48.286;8.484;2022-12-18T01:15:58;120.57;;;36.20;;
39738;SDS011;25422;48.286;8.484;2022-12-18T01:18:23;106.15;;;31.52;;
39738;SDS011;25422;48.286;8.484;2022-12-18T01:20:49;71.15;;;26.45;;
39738;SDS011;25422;48.286;8.484;2022-12-18T01:23:15;75.50;;;25.38;;
39738;SDS011;25422;48.286;8.484;2022-12-18T01:25:40;78.32;;;25.05;;
39738;SDS011;25422;48.286;8.484;2022-12-18T01:28:08;73.03;;;24.45;;
39738;SDS011;25422;48.286;8.484;2022-12-18T01:30:34;80.75;;;25.83;;
39738;SDS011;25422;48.286;8.484;2022-12-18T01:32:59;75.50;;;25.83;;
39738;SDS011;25422;48.286;8.484;2022-12-18T01:35:24;76.80;;;23.98;;
39738;SDS011;25422;48.286;8.484;2022-12-18T01:37:55;82.53;;;25.23;;
39738;SDS011;25422;48.286;8.484;2022-12-18T01:40:21;58.72;;;20.33;;
39738;SDS011;25422;48.286;8.484;2022-12-18T01:42:53;71.47;;;25.92;;
39738;SDS011;25422;48.286;8.484;2022-12-18T01:47:57;72.57;;;23.63;;
39738;SDS011;25422;48.286;8.484;2022-12-18T01:50:27;68.20;;;24.05;;
39738;SDS011;25422;48.286;8.484;2022-12-18T01:52:58;66.50;;;24.98;;
39738;SDS011;25422;48.286;8.484;2022-12-18T01:55:25;74.40;;;25.20;;
39738;SDS011;25422;48.286;8.484;2022-12-18T01:57:54;53.03;;;18.50;;
39738;SDS011;25422;48.286;8.484;2022-12-18T02:00:22;67.93;;;24.30;;
39738;SDS011;25422;48.286;8.484;2022-12-18T02:02:50;70.05;;;24.33;;
39738;SDS011;25422;48.286;8.484;2022-12-18T02:05:18;78.32;;;26.13;;
39738;SDS011;25422;48.286;8.484;2022-12-18T02:08:22;64.43;;;24.27;;
39738;SDS011;25422;48.286;8.484;2022-12-18T02:18:59;71.28;;;25.83;;
39738;SDS011;25422;48.286;8.484;2022-12-18T02:22:07;65.28;;;23.35;;
39738;SDS011;25422;48.286;8.484;2022-12-18T02:24:45;65.43;;;24.20;;
39738;SDS011;25422;48.286;8.484;2022-12-18T02:27:17;72.97;;;24.98;;
39738;SDS011;25422;48.286;8.484;2022-12-18T02:29:51;76.00;;;26.33;;
39738;SDS011;25422;48.286;8.484;2022-12-18T02:32:24;72.55;;;25.80;;
39738;SDS011;25422;48.286;8.484;2022-12-18T02:34:52;78.15;;;27.13;;
39738;SDS011;25422;48.286;8.484;2022-12-18T02:37:23;69.90;;;23.45;;
39738;SDS011;25422;48.286;8.484;2022-12-18T02:39:53;71.78;;;25.70;;
39738;SDS011;25422;48.286;8.484;2022-12-18T02:42:21;66.20;;;24.20;;
39738;SDS011;25422;48.286;8.484;2022-12-18T02:44:49;68.47;;;25.25;;
39738;SDS011;25422;48.286;8.484;2022-12-18T02:47:22;71.38;;;26.13;;
39738;SDS011;25422;48.286;8.484;2022-12-18T02:57:54;63.60;;;23.88;;
39738;SDS011;25422;48.286;8.484;2022-12-18T03:00:31;67.10;;;24.77;;
39738;SDS011;25422;48.286;8.484;2022-12-18T03:05:45;72.68;;;26.10;;
39738;SDS011;25422;48.286;8.484;2022-12-18T03:08:18;73.35;;;25.92;;
39738;SDS011;25422;48.286;8.484;2022-12-18T03:10:56;71.97;;;25.67;;
39738;SDS011;25422;48.286;8.484;2022-12-18T03:16:01;66.53;;;23.60;;
39738;SDS011;25422;48.286;8.484;2022-12-18T03:18:48;71.43;;;25.27;;
39738;SDS011;25422;48.286;8.484;2022-12-18T03:21:20;65.15;;;23.50;;
39738;SDS011;25422;48.286;8.484;2022-12-18T03:23:50;74.05;;;25.30;;
39738;SDS011;25422;48.286;8.484;2022-12-18T03:26:20;64.80;;;25.10;;
39738;SDS011;25422;48.286;8.484;2022-12-18T03:28:58;79.25;;;27.48;;
39738;SDS011;25422;48.286;8.484;2022-12-18T03:31:30;63.05;;;24.23;;
39738;SDS011;25422;48.286;8.484;2022-12-18T03:33:58;70.05;;;23.95;;
39738;SDS011;25422;48.286;8.484;2022-12-18T03:36:37;71.95;;;25.92;;
39738;SDS011;25422;48.286;8.484;2022-12-18T03:39:03;75.50;;;26.90;;
39738;SDS011;25422;48.286;8.484;2022-12-18T03:41:33;71.70;;;26.10;;
39738;SDS011;25422;48.286;8.484;2022-12-18T03:47:24;77.40;;;26.05;;
39738;SDS011;25422;48.286;8.484;2022-12-18T03:55:15;65.28;;;23.08;;
39738;SDS011;25422;48.286;8.484;2022-12-18T03:57:46;74.97;;;27.75;;
39738;SDS011;25422;48.286;8.484;2022-12-18T04:00:14;87.93;;;30.08;;
39738;SDS011;25422;48.286;8.484;2022-12-18T04:03:00;86.68;;;28.65;;
39738;SDS011;25422;48.286;8.484;2022-12-18T04:05:38;76.40;;;28.05;;
39738;SDS011;25422;48.286;8.484;2022-12-18T04:08:05;74.68;;;26.17;;
39738;SDS011;25422;48.286;8.484;2022-12-18T04:13:01;88.82;;;27.75;;
39738;SDS011;25422;48.286;8.484;2022-12-18T04:15:27;84.18;;;28.33;;
39738;SDS011;25422;48.286;8.484;2022-12-18T04:17:54;81.35;;;28.05;;
39738;SDS011;25422;48.286;8.484;2022-12-18T04:20:22;79.85;;;28.40;;
39738;SDS011;25422;48.286;8.484;2022-12-18T04:22:48;83.80;;;29.52;;
39738;SDS011;25422;48.286;8.484;2022-12-18T04:25:14;91.55;;;30.40;;
39738;SDS011;25422;48.286;8.484;2022-12-18T04:27:51;82.70;;;28.15;;
39738;SDS011;25422;48.286;8.484;2022-12-18T04:30:17;80.30;;;29.52;;
39738;SDS011;25422;48.286;8.484;2022-12-18T04:32:43;78.15;;;29.45;;
39738;SDS011;25422;48.286;8.484;2022-12-18T04:35:09;78.13;;;28.05;;
39738;SDS011;25422;48.286;8.484;2022-12-18T04:37:38;88.43;;;28.40;;
39738;SDS011;25422;48.286;8.484;2022-12-18T04:40:05;83.80;;;29.20;;
39738;SDS011;25422;48.286;8.484;2022-12-18T04:42:38;85.90;;;29.63;;
39738;SDS011;25422;48.286;8.484;2022-12-18T04:45:04;78.72;;;25.15;;
39738;SDS011;25422;48.286;8.484;2022-12-18T04:47:30;71.65;;;25.92;;
39738;SDS011;25422;48.286;8.484;2022-12-18T04:49:56;85.88;;;30.27;;
39738;SDS011;25422;48.286;8.484;2022-12-18T04:52:21;78.65;;;26.92;;
39738;SDS011;25422;48.286;8.484;2022-12-18T04:54:47;83.88;;;28.17;;
39738;SDS011;25422;48.286;8.484;2022-12-18T04:57:12;83.57;;;29.80;;
39738;SDS011;25422;48.286;8.484;2022-12-18T04:59:39;87.95;;;30.85;;
39738;SDS011;25422;48.286;8.484;2022-12-18T05:02:04;85.78;;;30.15;;
39738;SDS011;25422;48.286;8.484;2022-12-18T05:04:30;88.30;;;30.13;;
39738;SDS011;25422;48.286;8.484;2022-12-18T05:06:56;88.28;;;30.85;;
39738;SDS011;25422;48.286;8.484;2022-12-18T05:09:21;77.38;;;28.75;;
39738;SDS011;25422;48.286;8.484;2022-12-18T05:11:47;85.78;;;28.45;;
39738;SDS011;25422;48.286;8.484;2022-12-18T05:14:12;84.68;;;30.10;;
39738;SDS011;25422;48.286;8.484;2022-12-18T05:16:38;81.35;;;27.92;;
39738;SDS011;25422;48.286;8.484;2022-12-18T05:19:03;89.85;;;31.33;;
39738;SDS011;25422;48.286;8.484;2022-12-18T05:21:28;99.18;;;31.58;;
39738;SDS011;25422;48.286;8.484;2022-12-18T05:23:54;88.50;;;28.63;;
39738;SDS011;25422;48.286;8.484;2022-12-18T05:26:19;90.28;;;30.23;;
39738;SDS011;25422;48.286;8.484;2022-12-18T05:28:45;89.93;;;29.67;;
39738;SDS011;25422;48.286;8.484;2022-12-18T05:31:11;93.97;;;30.73;;
39738;SDS011;25422;48.286;8.484;2022-12-18T05:33:37;102.53;;;32.80;;
39738;SDS011;25422;48.286;8.484;2022-12-18T05:36:03;97.70;;;31.88;;
39738;SDS011;25422;48.286;8.484;2022-12-18T05:38:31;93.47;;;31.90;;
39738;SDS011;25422;48.286;8.484;2022-12-18T05:40:58;85.22;;;30.17;;
39738;SDS011;25422;48.286;8.484;2022-12-18T05:43:24;90.70;;;30.65;;
39738;SDS011;25422;48.286;8.484;2022-12-18T05:45:50;95.18;;;30.42;;
39738;SDS011;25422;48.286;8.484;2022-12-18T05:48:17;90.38;;;29.88;;
39738;SDS011;25422;48.286;8.484;2022-12-18T05:50:43;88.80;;;29.52;;
39738;SDS011;25422;48.286;8.484;2022-12-18T05:53:13;96.13;;;31.52;;
39738;SDS011;25422;48.286;8.484;2022-12-18T05:55:40;95.47;;;31.52;;
39738;SDS011;25422;48.286;8.484;2022-12-18T05:58:08;86.63;;;25.92;;
39738;SDS011;25422;48.286;8.484;2022-12-18T06:00:35;88.00;;;27.95;;
39738;SDS011;25422;48.286;8.484;2022-12-18T06:03:05;90.32;;;31.10;;
39738;SDS011;25422;48.286;8.484;2022-12-18T06:05:34;91.80;;;30.85;;
39738;SDS011;25422;48.286;8.484;2022-12-18T06:08:06;98.68;;;30.80;;
39738;SDS011;25422;48.286;8.484;2022-12-18T06:10:33;104.63;;;32.80;;
39738;SDS011;25422;48.286;8.484;2022-12-18T06:12:59;85.82;;;31.27;;
39738;SDS011;25422;48.286;8.484;2022-12-18T06:15:25;98.85;;;31.88;;
39738;SDS011;25422;48.286;8.484;2022-12-18T06:17:50;103.25;;;32.80;;
39738;SDS011;25422;48.286;8.484;2022-12-18T06:20:16;98.43;;;32.75;;
39738;SDS011;25422;48.286;8.484;2022-12-18T06:22:41;101.07;;;33.22;;
39738;SDS011;25422;48.286;8.484;2022-12-18T06:25:07;100.57;;;31.98;;
39738;SDS011;25422;48.286;8.484;2022-12-18T06:27:33;90.38;;;31.40;;
39738;SDS011;25422;48.286;8.484;2022-12-18T06:30:01;94.55;;;32.58;;
39738;SDS011;25422;48.286;8.484;2022-12-18T06:32:27;110.88;;;33.78;;
39738;SDS011;25422;48.286;8.484;2022-12-18T06:34:52;99.50;;;31.98;;
39738;SDS011;25422;48.286;8.484;2022-12-18T06:37:18;94.75;;;30.27;;
39738;SDS011;25422;48.286;8.484;2022-12-18T06:39:44;103.35;;;33.33;;
39738;SDS011;25422;48.286;8.484;2022-12-18T06:42:09;95.65;;;30.67;;
39738;SDS011;25422;48.286;8.484;2022-12-18T06:44:35;95.60;;;30.85;;
39738;SDS011;25422;48.286;8.484;2022-12-18T06:47:00;99.15;;;30.40;;
39738;SDS011;25422;48.286;8.484;2022-12-18T06:49:26;97.82;;;33.38;;
39738;SDS011;25422;48.286;8.484;2022-12-18T06:51:51;102.90;;;32.47;;
39738;SDS011;25422;48.286;8.484;2022-12-18T06:54:17;98.65;;;31.27;;
39738;SDS011;25422;48.286;8.484;2022-12-18T06:56:44;93.03;;;30.00;;
39738;SDS011;25422;48.286;8.484;2022-12-18T06:59:10;98.25;;;34.10;;
39738;SDS011;25422;48.286;8.484;2022-12-18T07:01:37;97.30;;;31.55;;
39738;SDS011;25422;48.286;8.484;2022-12-18T07:04:03;93.70;;;30.42;;
39738;SDS011;25422;48.286;8.484;2022-12-18T07:06:28;97.22;;;32.78;;
39738;SDS011;25422;48.286;8.484;2022-12-18T07:08:54;91.07;;;31.13;;
39738;SDS011;25422;48.286;8.484;2022-12-18T07:11:20;102.00;;;33.00;;
39738;SDS011;25422;48.286;8.484;2022-12-18T07:13:46;99.90;;;32.60;;
39738;SDS011;25422;48.286;8.484;2022-12-18T07:16:18;94.22;;;33.30;;
39738;SDS011;25422;48.286;8.484;2022-12-18T07:18:44;87.88;;;31.85;;
39738;SDS011;25422;48.286;8.484;2022-12-18T07:21:12;98.20;;;31.85;;
39738;SDS011;25422;48.286;8.484;2022-12-18T07:23:42;100.57;;;31.83;;
39738;SDS011;25422;48.286;8.484;2022-12-18T07:26:08;99.82;;;31.80;;
39738;SDS011;25422;48.286;8.484;2022-12-18T07:28:38;97.45;;;31.08;;
39738;SDS011;25422;48.286;8.484;2022-12-18T07:31:06;98.57;;;31.90;;
39738;SDS011;25422;48.286;8.484;2022-12-18T07:33:33;96.30;;;30.73;;
39738;SDS011;25422;48.286;8.484;2022-12-18T07:36:02;89.15;;;32.10;;
39738;SDS011;25422;48.286;8.484;2022-12-18T07:38:30;92.75;;;30.20;;
39738;SDS011;25422;48.286;8.484;2022-12-18T07:41:00;91.00;;;29.73;;
39738;SDS011;25422;48.286;8.484;2022-12-18T07:43:28;93.60;;;30.05;;
39738;SDS011;25422;48.286;8.484;2022-12-18T07:45:54;83.85;;;27.23;;
39738;SDS011;25422;48.286;8.484;2022-12-18T07:48:19;86.00;;;28.80;;
39738;SDS011;25422;48.286;8.484;2022-12-18T07:50:45;88.85;;;30.13;;
39738;SDS011;25422;48.286;8.484;2022-12-18T07:53:10;90.63;;;29.83;;
39738;SDS011;25422;48.286;8.484;2022-12-18T07:55:35;91.35;;;30.00;;
39738;SDS011;25422;48.286;8.484;2022-12-18T07:58:01;99.55;;;32.70;;
39738;SDS011;25422;48.286;8.484;2022-12-18T08:00:28;96.07;;;31.20;;
39738;SDS011;25422;48.286;8.484;2022-12-18T08:02:53;84.28;;;27.80;;
39738;SDS011;25422;48.286;8.484;2022-12-18T08:05:19;102.07;;;32.92;;
39738;SDS011;25422;48.286;8.484;2022-12-18T08:07:45;99.25;;;32.10;;
39738;SDS011;25422;48.286;8.484;2022-12-18T08:10:11;95.78;;;30.98;;
39738;SDS011;25422;48.286;8.484;2022-12-18T08:12:37;93.32;;;29.63;;
39738;SDS011;25422;48.286;8.484;2022-12-18T08:15:03;83.15;;;29.10;;
39738;SDS011;25422;48.286;8.484;2022-12-18T08:17:28;94.80;;;32.90;;
39738;SDS011;25422;48.286;8.484;2022-12-18T08:19:54;94.97;;;31.13;;
39738;SDS011;25422;48.286;8.484;2022-12-18T08:22:19;92.43;;;31.65;;
39738;SDS011;25422;48.286;8.484;2022-12-18T08:24:45;95.57;;;32.05;;
39738;SDS011;25422;48.286;8.484;2022-12-18T08:27:10;85.65;;;28.15;;
39738;SDS011;25422;48.286;8.484;2022-12-18T08:29:35;103.65;;;33.10;;
39738;SDS011;25422;48.286;8.484;2022-12-18T08:32:01;91.57;;;31.13;;
39738;SDS011;25422;48.286;8.484;2022-12-18T08:34:26;95.40;;;31.02;;
39738;SDS011;25422;48.286;8.484;2022-12-18T08:36:52;102.88;;;32.58;;
39738;SDS011;25422;48.286;8.484;2022-12-18T08:39:17;96.20;;;31.42;;
39738;SDS011;25422;48.286;8.484;2022-12-18T08:41:42;96.00;;;32.03;;
39738;SDS011;25422;48.286;8.484;2022-12-18T08:44:28;101.65;;;33.20;;
39738;SDS011;25422;48.286;8.484;2022-12-18T08:47:03;97.57;;;33.08;;
39738;SDS011;25422;48.286;8.484;2022-12-18T08:49:28;102.15;;;33.88;;
39738;SDS011;25422;48.286;8.484;2022-12-18T08:51:54;100.93;;;34.42;;
39738;SDS011;25422;48.286;8.484;2022-12-18T08:54:22;102.57;;;34.78;;
39738;SDS011;25422;48.286;8.484;2022-12-18T08:56:47;91.03;;;33.00;;
39738;SDS011;25422;48.286;8.484;2022-12-18T08:59:13;92.65;;;30.95;;
39738;SDS011;25422;48.286;8.484;2022-12-18T09:01:39;93.93;;;32.97;;
39738;SDS011;25422;48.286;8.484;2022-12-18T09:04:04;91.60;;;32.55;;
39738;SDS011;25422;48.286;8.484;2022-12-18T09:06:33;93.03;;;33.60;;
39738;SDS011;25422;48.286;8.484;2022-12-18T09:09:00;100.43;;;35.42;;
39738;SDS011;25422;48.286;8.484;2022-12-18T09:11:28;94.90;;;36.17;;
39738;SDS011;25422;48.286;8.484;2022-12-18T09:13:54;96.72;;;33.50;;
39738;SDS011;25422;48.286;8.484;2022-12-18T09:16:20;97.85;;;37.72;;
39738;SDS011;25422;48.286;8.484;2022-12-18T09:18:47;90.50;;;34.33;;
39738;SDS011;25422;48.286;8.484;2022-12-18T09:21:13;97.40;;;36.10;;
39738;SDS011;25422;48.286;8.484;2022-12-18T09:23:41;86.03;;;31.35;;
39738;SDS011;25422;48.286;8.484;2022-12-18T09:26:07;83.18;;;32.05;;
39738;SDS011;25422;48.286;8.484;2022-12-18T09:28:32;90.75;;;33.88;;
39738;SDS011;25422;48.286;8.484;2022-12-18T09:30:58;96.30;;;34.13;;
39738;SDS011;25422;48.286;8.484;2022-12-18T09:33:28;92.15;;;32.15;;
39738;SDS011;25422;48.286;8.484;2022-12-18T09:35:53;82.85;;;30.23;;
39738;SDS011;25422;48.286;8.484;2022-12-18T09:38:19;90.45;;;32.92;;
39738;SDS011;25422;48.286;8.484;2022-12-18T09:40:49;87.78;;;32.95;;
39738;SDS011;25422;48.286;8.484;2022-12-18T09:43:18;94.38;;;32.88;;
39738;SDS011;25422;48.286;8.484;2022-12-18T09:45:49;85.72;;;32.50;;
39738;SDS011;25422;48.286;8.484;2022-12-18T09:48:25;85.93;;;31.63;;
39738;SDS011;25422;48.286;8.484;2022-12-18T09:50:55;87.63;;;33.58;;
39738;SDS011;25422;48.286;8.484;2022-12-18T09:53:28;87.55;;;32.63;;
39738;SDS011;25422;48.286;8.484;2022-12-18T09:55:57;91.07;;;36.00;;
39738;SDS011;25422;48.286;8.484;2022-12-18T09:58:33;87.18;;;33.00;;
39738;SDS011;25422;48.286;8.484;2022-12-18T10:01:23;80.57;;;30.38;;
39738;SDS011;25422;48.286;8.484;2022-12-18T10:03:49;88.63;;;32.92;;
39738;SDS011;25422;48.286;8.484;2022-12-18T10:09:00;86.85;;;34.15;;
39738;SDS011;25422;48.286;8.484;2022-12-18T10:19:37;73.20;;;26.98;;
39738;SDS011;25422;48.286;8.484;2022-12-18T10:27:55;80.10;;;33.92;;
39738;SDS011;25422;48.286;8.484;2022-12-18T10:30:25;80.38;;;32.13;;
39738;SDS011;25422;48.286;8.484;2022-12-18T10:32:51;80.47;;;33.28;;
39738;SDS011;25422;48.286;8.484;2022-12-18T10:35:20;80.80;;;33.92;;
39738;SDS011;25422;48.286;8.484;2022-12-18T10:40:31;74.95;;;32.22;;
39738;SDS011;25422;48.286;8.484;2022-12-18T10:43:04;72.90;;;29.83;;
39738;SDS011;25422;48.286;8.484;2022-12-18T10:45:37;73.88;;;32.10;;
39738;SDS011;25422;48.286;8.484;2022-12-18T10:48:03;75.35;;;31.80;;
39738;SDS011;25422;48.286;8.484;2022-12-18T10:50:30;72.90;;;31.25;;
39738;SDS011;25422;48.286;8.484;2022-12-18T10:52:59;69.10;;;29.38;;
39738;SDS011;25422;48.286;8.484;2022-12-18T10:55:38;71.70;;;31.40;;
39738;SDS011;25422;48.286;8.484;2022-12-18T11:01:15;70.93;;;32.17;;
39738;SDS011;25422;48.286;8.484;2022-12-18T11:06:23;74.28;;;30.83;;
39738;SDS011;25422;48.286;8.484;2022-12-18T11:09:03;65.35;;;28.67;;
39738;SDS011;25422;48.286;8.484;2022-12-18T11:11:48;70.15;;;30.73;;
39738;SDS011;25422;48.286;8.484;2022-12-18T11:14:33;64.85;;;29.48;;
39738;SDS011;25422;48.286;8.484;2022-12-18T11:17:20;73.32;;;32.13;;
39738;SDS011;25422;48.286;8.484;2022-12-18T11:20:00;71.85;;;33.17;;
39738;SDS011;25422;48.286;8.484;2022-12-18T11:22:33;66.90;;;31.08;;
39738;SDS011;25422;48.286;8.484;2022-12-18T11:25:05;69.50;;;30.85;;
39738;SDS011;25422;48.286;8.484;2022-12-18T11:36:44;69.80;;;32.75;;
39738;SDS011;25422;48.286;8.484;2022-12-18T11:39:14;69.35;;;31.90;;
39738;SDS011;25422;48.286;8.484;2022-12-18T11:41:57;66.60;;;30.50;;
39738;SDS011;25422;48.286;8.484;2022-12-18T11:47:30;65.32;;;29.85;;
39738;SDS011;25422;48.286;8.484;2022-12-18T11:50:12;65.80;;;30.40;;
39738;SDS011;25422;48.286;8.484;2022-12-18T11:52:41;74.18;;;33.85;;
39738;SDS011;25422;48.286;8.484;2022-12-18T11:55:15;68.60;;;30.52;;
39738;SDS011;25422;48.286;8.484;2022-12-18T12:00:30;67.28;;;30.75;;
39738;SDS011;25422;48.286;8.484;2022-12-18T12:05:54;65.60;;;30.83;;
39738;SDS011;25422;48.286;8.484;2022-12-18T12:11:42;60.95;;;29.48;;
39738;SDS011;25422;48.286;8.484;2022-12-18T12:16:57;63.00;;;29.65;;
39738;SDS011;25422;48.286;8.484;2022-12-18T12:21:59;67.40;;;30.60;;
39738;SDS011;25422;48.286;8.484;2022-12-18T12:27:08;64.22;;;29.38;;
39738;SDS011;25422;48.286;8.484;2022-12-18T12:32:55;69.93;;;32.42;;
39738;SDS011;25422;48.286;8.484;2022-12-18T12:41:06;71.03;;;31.80;;
39738;SDS011;25422;48.286;8.484;2022-12-18T12:43:57;66.22;;;30.27;;
39738;SDS011;25422;48.286;8.484;2022-12-18T12:46:26;74.78;;;34.05;;
39738;SDS011;25422;48.286;8.484;2022-12-18T12:49:04;74.38;;;32.28;;
39738;SDS011;25422;48.286;8.484;2022-12-18T12:51:38;69.32;;;31.17;;
39738;SDS011;25422;48.286;8.484;2022-12-18T12:56:40;72.47;;;31.90;;
39738;SDS011;25422;48.286;8.484;2022-12-18T12:59:22;70.35;;;29.80;;
39738;SDS011;25422;48.286;8.484;2022-12-18T13:02:05;69.40;;;29.60;;
39738;SDS011;25422;48.286;8.484;2022-12-18T13:05:03;69.07;;;29.75;;
39738;SDS011;25422;48.286;8.484;2022-12-18T13:07:50;71.88;;;30.95;;
39738;SDS011;25422;48.286;8.484;2022-12-18T13:13:28;72.85;;;30.85;;
39738;SDS011;25422;48.286;8.484;2022-12-18T13:15:47;74.67;;;31.73;;
39738;SDS011;25422;48.286;8.484;2022-12-18T13:18:30;78.80;;;34.35;;
39738;SDS011;25422;48.286;8.484;2022-12-18T13:25:48;83.90;;;34.75;;
39738;SDS011;25422;48.286;8.484;2022-12-18T13:36:46;78.70;;;33.40;;
39738;SDS011;25422;48.286;8.484;2022-12-18T13:41:51;72.07;;;29.92;;
39738;SDS011;25422;48.286;8.484;2022-12-18T13:44:33;86.63;;;34.63;;
39738;SDS011;25422;48.286;8.484;2022-12-18T13:47:01;79.75;;;32.50;;
39738;SDS011;25422;48.286;8.484;2022-12-18T13:49:38;83.05;;;32.65;;
39738;SDS011;25422;48.286;8.484;2022-12-18T13:52:22;82.43;;;32.40;;
39738;SDS011;25422;48.286;8.484;2022-12-18T13:54:53;78.75;;;29.83;;
39738;SDS011;25422;48.286;8.484;2022-12-18T13:57:31;80.82;;;30.60;;
39738;SDS011;25422;48.286;8.484;2022-12-18T14:02:52;79.97;;;32.58;;
39738;SDS011;25422;48.286;8.484;2022-12-18T14:08:01;78.13;;;32.00;;
39738;SDS011;25422;48.286;8.484;2022-12-18T14:12:56;75.43;;;29.83;;
39738;SDS011;25422;48.286;8.484;2022-12-18T14:15:30;79.63;;;31.73;;
39738;SDS011;25422;48.286;8.484;2022-12-18T14:18:23;76.90;;;33.30;;
39738;SDS011;25422;48.286;8.484;2022-12-18T14:20:51;79.43;;;31.03;;
39738;SDS011;25422;48.286;8.484;2022-12-18T14:23:38;83.47;;;32.50;;
39738;SDS011;25422;48.286;8.484;2022-12-18T14:26:25;82.95;;;33.70;;
39738;SDS011;25422;48.286;8.484;2022-12-18T14:28:54;85.50;;;32.95;;
39738;SDS011;25422;48.286;8.484;2022-12-18T14:31:21;87.63;;;34.00;;
39738;SDS011;25422;48.286;8.484;2022-12-18T14:33:49;82.53;;;32.42;;
39738;SDS011;25422;48.286;8.484;2022-12-18T14:36:16;78.03;;;29.45;;
39738;SDS011;25422;48.286;8.484;2022-12-18T14:38:47;84.57;;;30.80;;
39738;SDS011;25422;48.286;8.484;2022-12-18T14:41:15;82.82;;;31.88;;
39738;SDS011;25422;48.286;8.484;2022-12-18T14:43:43;84.47;;;32.58;;
39738;SDS011;25422;48.286;8.484;2022-12-18T14:48:57;82.13;;;33.42;;
39738;SDS011;25422;48.286;8.484;2022-12-18T14:51:28;81.05;;;31.90;;
39738;SDS011;25422;48.286;8.484;2022-12-18T14:53:57;81.75;;;31.13;;
39738;SDS011;25422;48.286;8.484;2022-12-18T14:59:02;107.82;;;41.50;;
39738;SDS011;25422;48.286;8.484;2022-12-18T15:01:33;151.80;;;61.83;;
39738;SDS011;25422;48.286;8.484;2022-12-18T15:04:02;79.20;;;33.33;;
39738;SDS011;25422;48.286;8.484;2022-12-18T15:06:36;88.35;;;34.83;;
39738;SDS011;25422;48.286;8.484;2022-12-18T15:09:04;87.60;;;32.45;;
39738;SDS011;25422;48.286;8.484;2022-12-18T15:11:45;80.60;;;31.08;;
39738;SDS011;25422;48.286;8.484;2022-12-18T15:14:28;73.85;;;29.58;;
39738;SDS011;25422;48.286;8.484;2022-12-18T15:16:56;88.57;;;33.05;;
39738;SDS011;25422;48.286;8.484;2022-12-18T15:19:32;90.57;;;32.15;;
39738;SDS011;25422;48.286;8.484;2022-12-18T15:22:04;83.93;;;30.23;;
39738;SDS011;25422;48.286;8.484;2022-12-18T15:24:31;87.07;;;31.58;;
39738;SDS011;25422;48.286;8.484;2022-12-18T15:26:57;82.25;;;29.70;;
39738;SDS011;25422;48.286;8.484;2022-12-18T15:29:23;82.50;;;30.80;;
39738;SDS011;25422;48.286;8.484;2022-12-18T15:32:01;81.78;;;29.75;;
39738;SDS011;25422;48.286;8.484;2022-12-18T15:34:44;85.43;;;29.83;;
39738;SDS011;25422;48.286;8.484;2022-12-18T15:37:09;81.50;;;29.38;;
39738;SDS011;25422;48.286;8.484;2022-12-18T15:39:35;81.63;;;29.35;;
39738;SDS011;25422;48.286;8.484;2022-12-18T15:42:01;84.93;;;30.15;;
39738;SDS011;25422;48.286;8.484;2022-12-18T15:44:45;85.43;;;31.98;;
39738;SDS011;25422;48.286;8.484;2022-12-18T15:47:11;87.60;;;29.83;;
39738;SDS011;25422;48.286;8.484;2022-12-18T15:49:38;82.85;;;30.00;;
39738;SDS011;25422;48.286;8.484;2022-12-18T15:52:04;73.82;;;27.00;;
39738;SDS011;25422;48.286;8.484;2022-12-18T15:54:30;90.03;;;31.42;;
39738;SDS011;25422;48.286;8.484;2022-12-18T15:57:15;77.03;;;24.20;;
39738;SDS011;25422;48.286;8.484;2022-12-18T15:59:54;82.38;;;30.55;;
39738;SDS011;25422;48.286;8.484;2022-12-18T16:02:23;84.90;;;31.10;;
39738;SDS011;25422;48.286;8.484;2022-12-18T16:04:49;89.15;;;32.05;;
39738;SDS011;25422;48.286;8.484;2022-12-18T16:07:17;87.22;;;31.50;;
39738;SDS011;25422;48.286;8.484;2022-12-18T16:09:42;90.32;;;32.50;;
39738;SDS011;25422;48.286;8.484;2022-12-18T16:12:11;84.35;;;30.42;;
39738;SDS011;25422;48.286;8.484;2022-12-18T16:14:47;84.57;;;29.53;;
39738;SDS011;25422;48.286;8.484;2022-12-18T16:17:12;86.95;;;31.67;;
39738;SDS011;25422;48.286;8.484;2022-12-18T16:19:39;95.95;;;34.42;;
39738;SDS011;25422;48.286;8.484;2022-12-18T16:22:05;83.20;;;30.92;;
39738;SDS011;25422;48.286;8.484;2022-12-18T16:24:31;90.63;;;35.30;;
39738;SDS011;25422;48.286;8.484;2022-12-18T16:26:59;88.70;;;33.97;;
39738;SDS011;25422;48.286;8.484;2022-12-18T16:29:26;90.03;;;36.28;;
39738;SDS011;25422;48.286;8.484;2022-12-18T16:31:56;86.25;;;32.25;;
39738;SDS011;25422;48.286;8.484;2022-12-18T16:34:25;88.03;;;32.42;;
39738;SDS011;25422;48.286;8.484;2022-12-18T16:36:55;87.40;;;32.72;;
39738;SDS011;25422;48.286;8.484;2022-12-18T16:39:35;82.68;;;29.95;;
39738;SDS011;25422;48.286;8.484;2022-12-18T16:42:03;89.22;;;31.65;;
39738;SDS011;25422;48.286;8.484;2022-12-18T16:44:37;84.05;;;31.38;;
39738;SDS011;25422;48.286;8.484;2022-12-18T16:47:03;82.00;;;31.20;;